createdAt,value
2023-05-10T00:00:37.288Z,6.4
2023-05-10T00:01:51.558Z,6.4
2023-05-10T00:03:05.849Z,5.5
2023-05-10T00:04:20.256Z,6.8
2023-05-10T00:05:34.576Z,3.8
2023-05-10T00:06:48.857Z,4.8
2023-05-10T00:08:03.145Z,4.5
2023-05-10T00:09:17.549Z,7.4
2023-05-10T00:10:31.870Z,7.1
2023-05-10T00:11:46.145Z,5.9
2023-05-10T00:13:00.489Z,3.8
2023-05-10T00:14:14.887Z,5.2
2023-05-10T00:15:29.226Z,5.2
2023-05-10T00:16:42.583Z,7
2023-05-10T00:17:56.854Z,3.9
2023-05-10T00:19:11.264Z,4.2
2023-05-10T00:20:25.581Z,5.5
2023-05-10T00:21:39.867Z,4.6
2023-05-10T00:22:54.159Z,3.6
2023-05-10T00:24:08.559Z,6.5
2023-05-10T00:25:22.876Z,6.3
2023-05-10T00:26:37.152Z,4.3
2023-05-10T00:27:51.435Z,3.8
2023-05-10T00:29:05.852Z,3
2023-05-10T00:30:20.176Z,5
2023-05-10T00:31:34.450Z,3.9
2023-05-10T00:32:48.730Z,4.3
2023-05-10T00:34:03.130Z,2.5
2023-05-10T00:35:17.469Z,4.9
2023-05-10T00:36:31.735Z,3.8
2023-05-10T00:37:46.027Z,3
2023-05-10T00:39:00.425Z,3.1
2023-05-10T00:40:14.751Z,3.8
2023-05-10T00:41:29.182Z,4.2
2023-05-10T00:42:43.500Z,5.7
2023-05-10T00:43:57.780Z,2.8
2023-05-10T00:46:26.518Z,3.1
2023-05-10T00:47:40.793Z,8
2023-05-10T00:48:55.073Z,2.6
2023-05-10T00:50:09.479Z,4.3
2023-05-10T00:51:23.809Z,2.7
2023-05-10T00:52:38.075Z,2.5
2023-05-10T00:53:52.369Z,4.7
2023-05-10T00:55:06.781Z,3.2
2023-05-10T00:56:21.087Z,1.8
2023-05-10T00:57:35.385Z,4.9
2023-05-10T00:58:49.662Z,2.2
2023-05-10T01:00:04.065Z,3.7
2023-05-10T01:01:18.382Z,3.7
2023-05-10T01:02:32.658Z,2.2
2023-05-10T01:03:46.949Z,3.6
2023-05-10T01:05:01.359Z,2.6
2023-05-10T01:06:15.676Z,2.5
2023-05-10T01:07:29.951Z,2.3
2023-05-10T01:08:44.242Z,4
2023-05-10T01:09:58.653Z,4.3
2023-05-10T01:11:12.969Z,3.8
2023-05-10T01:12:27.306Z,3.4
2023-05-10T01:13:40.659Z,3.5
2023-05-10T01:14:54.974Z,2.4
2023-05-10T01:16:09.255Z,4.1
2023-05-10T01:17:23.543Z,3.1
2023-05-10T01:18:37.957Z,4.4
2023-05-10T01:19:52.269Z,3.4
2023-05-10T01:21:06.546Z,5.4
2023-05-10T01:22:20.826Z,2.6
2023-05-10T01:23:35.241Z,2.5
2023-05-10T01:26:03.851Z,3.7
2023-05-10T01:27:18.132Z,2.6
2023-05-10T01:28:32.530Z,3.8
2023-05-10T01:29:46.857Z,3.6
2023-05-10T01:31:01.145Z,3.8
2023-05-10T01:32:15.424Z,4.5
2023-05-10T01:33:29.816Z,3.7
2023-05-10T01:34:44.142Z,3.8
2023-05-10T01:35:58.428Z,5.6
2023-05-10T01:37:12.712Z,5.1
2023-05-10T01:38:27.125Z,2.4
2023-05-10T01:39:41.441Z,1.6
2023-05-10T01:40:55.717Z,3.3
2023-05-10T01:42:10.137Z,1.6
2023-05-10T01:43:24.556Z,2.4
2023-05-10T01:44:38.878Z,2.9
2023-05-10T01:45:53.161Z,2.9
2023-05-10T01:47:07.431Z,3.9
2023-05-10T01:48:21.856Z,2.9
2023-05-10T01:49:36.169Z,2.5
2023-05-10T01:50:50.449Z,4
2023-05-10T01:52:04.731Z,3.5
2023-05-10T01:53:19.147Z,2.6
2023-05-10T01:54:33.460Z,3.9
2023-05-10T01:55:47.747Z,3.6
2023-05-10T01:57:02.021Z,3.5
2023-05-10T01:58:16.436Z,4.8
2023-05-10T01:59:30.754Z,5.3
2023-05-10T02:00:45.034Z,3.2
2023-05-10T02:01:59.319Z,3.1
2023-05-10T02:03:13.731Z,3
2023-05-10T02:04:28.039Z,2.8
2023-05-10T02:05:42.334Z,3.9
2023-05-10T02:06:56.606Z,4.5
2023-05-10T02:08:11.013Z,3.5
2023-05-10T02:09:25.339Z,2.8
2023-05-10T02:10:39.621Z,3.2
2023-05-10T02:11:54.043Z,4.9
2023-05-10T02:13:08.442Z,3.7
2023-05-10T02:14:22.780Z,4.8
2023-05-10T02:15:37.056Z,2.2
2023-05-10T02:16:51.335Z,2.9
2023-05-10T02:18:05.736Z,3.5
2023-05-10T02:19:20.073Z,2.9
2023-05-10T02:20:34.348Z,2.6
2023-05-10T02:21:48.630Z,2.8
2023-05-10T02:23:03.029Z,3.2
2023-05-10T02:24:17.363Z,2.2
2023-05-10T02:25:31.641Z,2.8
2023-05-10T02:26:45.924Z,2.2
2023-05-10T02:28:00.330Z,2.5
2023-05-10T02:29:14.660Z,2.5
2023-05-10T02:30:28.927Z,4
2023-05-10T02:31:43.215Z,2.8
2023-05-10T02:32:57.622Z,1.9
2023-05-10T02:34:11.950Z,2.3
2023-05-10T02:35:26.227Z,1.8
2023-05-10T02:36:40.515Z,2.8
2023-05-10T02:37:54.920Z,2.3
2023-05-10T02:39:09.239Z,2.1
2023-05-10T02:40:23.527Z,1.6
2023-05-10T02:41:37.811Z,3.7
2023-05-10T02:42:52.262Z,1.2
2023-05-10T02:44:06.599Z,1.6
2023-05-10T02:45:19.954Z,3.1
2023-05-10T02:46:34.229Z,1.3
2023-05-10T02:47:48.649Z,1.6
2023-05-10T02:49:02.960Z,1.7
2023-05-10T02:50:17.260Z,1.9
2023-05-10T02:51:31.526Z,1.3
2023-05-10T02:52:45.946Z,1.5
2023-05-10T02:54:00.264Z,1.1
2023-05-10T02:55:14.539Z,1
2023-05-10T02:56:28.823Z,3.4
2023-05-10T02:57:43.233Z,1.4
2023-05-10T02:58:57.563Z,0.8
2023-05-10T03:00:11.833Z,1.4
2023-05-10T03:01:26.119Z,1.1
2023-05-10T03:02:40.535Z,0.8
2023-05-10T03:03:54.851Z,0.8
2023-05-10T03:05:09.135Z,0.6
2023-05-10T03:06:23.463Z,0.8
2023-05-10T03:07:37.740Z,0.8
2023-05-10T03:08:52.138Z,0.8
2023-05-10T03:10:06.469Z,0.9
2023-05-10T03:11:20.703Z,1.1
2023-05-10T03:12:34.915Z,0.9
2023-05-10T03:13:49.142Z,2.1
2023-05-10T03:15:03.446Z,0.9
2023-05-10T03:16:17.750Z,2.3
2023-05-10T03:17:31.079Z,0.8
2023-05-10T03:18:45.361Z,1.1
2023-05-10T03:19:59.660Z,1.3
2023-05-10T03:21:13.938Z,2.5
2023-05-10T03:22:27.245Z,2.8
2023-05-10T03:23:41.470Z,1.9
2023-05-10T03:24:55.759Z,5
2023-05-10T03:26:10.005Z,1.5
2023-05-10T03:27:24.242Z,1.1
2023-05-10T03:28:38.463Z,1.3
2023-05-10T03:29:52.694Z,1.6
2023-05-10T03:31:06.987Z,2.5
2023-05-10T03:32:21.232Z,2.6
2023-05-10T03:33:35.446Z,1.4
2023-05-10T03:34:49.689Z,1.6
2023-05-10T03:36:03.909Z,3.1
2023-05-10T03:37:18.206Z,1.6
2023-05-10T03:38:32.439Z,1.7
2023-05-10T03:39:46.675Z,2.4
2023-05-10T03:41:00.897Z,1.3
2023-05-10T03:42:15.123Z,1.3
2023-05-10T03:43:29.428Z,2.2
2023-05-10T03:44:43.670Z,2.4
2023-05-10T03:45:57.887Z,2.7
2023-05-10T03:47:12.115Z,3.9
2023-05-10T03:48:26.350Z,1.8
2023-05-10T03:49:40.658Z,1.2
2023-05-10T03:50:54.880Z,1.8
2023-05-10T03:52:09.115Z,2.1
2023-05-10T03:53:23.393Z,1.6
2023-05-10T03:54:36.000Z,1.7
2023-05-10T03:55:50.947Z,1.4
2023-05-10T03:57:05.168Z,2.8
2023-05-10T03:58:19.392Z,1.7
2023-05-10T03:59:33.609Z,1.2
2023-05-10T04:00:47.918Z,1.3
2023-05-10T04:02:02.162Z,1.1
2023-05-10T04:03:16.391Z,1.7
2023-05-10T04:04:30.606Z,1.9
2023-05-10T04:05:44.833Z,2.8
2023-05-10T04:06:59.144Z,3.4
2023-05-10T04:08:13.379Z,1.5
2023-05-10T04:09:27.618Z,2.5
2023-05-10T04:10:41.834Z,2.1
2023-05-10T04:11:56.048Z,1.8
2023-05-10T04:13:10.349Z,2.9
2023-05-10T04:14:24.603Z,1.9
2023-05-10T04:15:38.824Z,2.3
2023-05-10T04:16:53.062Z,3.8
2023-05-10T04:18:07.283Z,2.9
2023-05-10T04:19:21.583Z,4
2023-05-10T04:20:35.824Z,1.5
2023-05-10T04:21:50.046Z,3.5
2023-05-10T04:23:04.278Z,2.2
2023-05-10T04:24:18.489Z,2.5
2023-05-10T04:25:32.860Z,3
2023-05-10T04:26:47.135Z,2.4
2023-05-10T04:28:00.444Z,4.1
2023-05-10T04:29:14.652Z,2.3
2023-05-10T04:30:28.960Z,3
2023-05-10T04:31:43.206Z,1.5
2023-05-10T04:32:57.436Z,4.6
2023-05-10T04:34:11.666Z,2.5
2023-05-10T04:35:25.877Z,3.1
2023-05-10T04:36:40.183Z,1.9
2023-05-10T04:37:54.416Z,2.8
2023-05-10T04:39:08.658Z,1.5
2023-05-10T04:40:22.870Z,2.6
2023-05-10T04:41:37.114Z,1.5
2023-05-10T04:42:51.404Z,2.7
2023-05-10T04:44:05.643Z,2.7
2023-05-10T04:45:19.875Z,2.5
2023-05-10T04:46:34.099Z,4.2
2023-05-10T04:47:48.324Z,1.7
2023-05-10T04:49:02.631Z,4.3
2023-05-10T04:50:16.872Z,2.1
2023-05-10T04:51:31.094Z,2.4
2023-05-10T04:52:45.329Z,1.9
2023-05-10T04:53:59.546Z,1.7
2023-05-10T04:55:13.839Z,1.5
2023-05-10T04:56:28.084Z,3.1
2023-05-10T04:57:42.317Z,2.2
2023-05-10T04:58:56.609Z,1.9
2023-05-10T05:00:09.901Z,2.1
2023-05-10T05:01:24.136Z,1.8
2023-05-10T05:02:38.372Z,2.7
2023-05-10T05:03:52.582Z,2.1
2023-05-10T05:05:06.809Z,1.9
2023-05-10T05:06:21.125Z,3.2
2023-05-10T05:07:35.360Z,2.2
2023-05-10T05:08:49.580Z,1.3
2023-05-10T05:10:03.812Z,3.9
2023-05-10T05:11:18.032Z,2.2
2023-05-10T05:13:46.587Z,2.6
2023-05-10T05:15:00.803Z,2.1
2023-05-10T05:16:15.039Z,2.5
2023-05-10T05:17:29.250Z,2
2023-05-10T05:18:43.560Z,1.6
2023-05-10T05:19:57.805Z,1.5
2023-05-10T05:21:12.025Z,3.8
2023-05-10T05:22:26.261Z,1.8
2023-05-10T05:23:40.475Z,3.3
2023-05-10T05:24:54.779Z,1.7
2023-05-10T05:26:09.028Z,4.6
2023-05-10T05:27:23.242Z,1.9
2023-05-10T05:28:37.466Z,1.9
2023-05-10T05:29:51.710Z,2.6
2023-05-10T05:31:06.056Z,1.3
2023-05-10T05:32:20.346Z,2.1
2023-05-10T05:33:33.649Z,1.6
2023-05-10T05:34:47.867Z,2
2023-05-10T05:36:02.174Z,2.1
2023-05-10T05:37:16.398Z,2.7
2023-05-10T05:38:30.626Z,2.2
2023-05-10T05:39:44.867Z,4.1
2023-05-10T05:40:59.092Z,3.4
2023-05-10T05:42:13.384Z,3.4
2023-05-10T05:43:27.639Z,2.9
2023-05-10T05:44:41.861Z,1.3
2023-05-10T05:45:56.086Z,2.9
2023-05-10T05:47:10.306Z,2.1
2023-05-10T05:48:24.615Z,3.6
2023-05-10T05:49:38.855Z,2.4
2023-05-10T05:50:53.073Z,2.7
2023-05-10T05:52:07.304Z,3.6
2023-05-10T05:53:21.524Z,2.4
2023-05-10T05:54:35.822Z,3.9
2023-05-10T05:55:50.080Z,4
2023-05-10T05:57:04.297Z,4.1
2023-05-10T05:58:18.516Z,3.5
2023-05-10T05:59:32.754Z,2.7
2023-05-10T06:00:47.057Z,3
2023-05-10T06:02:01.295Z,3.8
2023-05-10T06:03:15.522Z,2.2
2023-05-10T06:04:29.804Z,5.2
2023-05-10T06:05:43.132Z,3.5
2023-05-10T06:06:57.429Z,2.4
2023-05-10T06:08:10.722Z,4.5
2023-05-10T06:09:24.937Z,2.9
2023-05-10T06:10:39.238Z,2.6
2023-05-10T06:11:53.478Z,2.7
2023-05-10T06:13:07.703Z,4.4
2023-05-10T06:14:21.934Z,6.7
2023-05-10T06:15:36.166Z,4.2
2023-05-10T06:16:50.464Z,3.8
2023-05-10T06:18:04.714Z,5.2
2023-05-10T06:19:18.923Z,2.9
2023-05-10T06:20:33.165Z,3.6
2023-05-10T06:21:47.391Z,3
2023-05-10T06:23:01.689Z,5.4
2023-05-10T06:24:15.929Z,7.7
2023-05-10T06:25:30.148Z,5.3
2023-05-10T06:26:44.377Z,5.4
2023-05-10T06:27:58.607Z,4.1
2023-05-10T06:29:12.908Z,4
2023-05-10T06:30:27.141Z,4.5
2023-05-10T06:31:41.381Z,4.2
2023-05-10T06:32:55.597Z,3.5
2023-05-10T06:34:09.833Z,6.6
2023-05-10T06:35:24.127Z,4.6
2023-05-10T06:36:38.369Z,5.3
2023-05-10T06:37:52.589Z,6.8
2023-05-10T06:39:06.879Z,5.6
2023-05-10T06:40:20.205Z,4.2
2023-05-10T06:41:34.504Z,3.5
2023-05-10T06:42:47.845Z,6.8
2023-05-10T06:44:01.183Z,5.2
2023-05-10T06:45:15.459Z,5.5
2023-05-10T06:46:28.763Z,9.7
2023-05-10T06:47:42.993Z,8.1
2023-05-10T06:48:57.287Z,8
2023-05-10T06:50:11.537Z,7.7
2023-05-10T06:51:25.772Z,8.6
2023-05-10T06:52:39.988Z,11
2023-05-10T06:53:54.200Z,7.6
2023-05-10T06:55:08.505Z,6
2023-05-10T06:56:22.738Z,6.4
2023-05-10T06:57:36.964Z,6.2
2023-05-10T06:58:51.195Z,10.2
2023-05-10T07:00:05.427Z,8.9
2023-05-10T07:01:19.730Z,8.8
2023-05-10T07:02:33.971Z,9.7
2023-05-10T07:03:48.187Z,9.1
2023-05-10T07:05:02.426Z,11.5
2023-05-10T07:06:16.640Z,9.5
2023-05-10T07:07:30.937Z,10.3
2023-05-10T07:08:45.193Z,10.6
2023-05-10T07:09:59.417Z,6
2023-05-10T07:11:13.637Z,10
2023-05-10T07:12:27.872Z,11.6
2023-05-10T07:13:42.166Z,9.5
2023-05-10T07:14:56.398Z,10.9
2023-05-10T07:16:10.644Z,11.5
2023-05-10T07:17:24.927Z,8.9
2023-05-10T07:18:38.262Z,10.5
2023-05-10T07:19:52.538Z,7.5
2023-05-10T07:21:05.827Z,7.7
2023-05-10T07:22:20.061Z,10.7
2023-05-10T07:23:34.360Z,12.6
2023-05-10T07:24:48.592Z,9.6
2023-05-10T07:26:02.817Z,8.5
2023-05-10T07:27:17.044Z,8.5
2023-05-10T07:28:31.274Z,8
2023-05-10T07:29:45.573Z,8.8
2023-05-10T07:30:59.824Z,10.6
2023-05-10T07:32:14.039Z,11.6
2023-05-10T07:33:28.272Z,12.6
2023-05-10T07:34:42.490Z,11.5
2023-05-10T07:35:56.801Z,9.3
2023-05-10T07:37:11.031Z,8.5
2023-05-10T07:38:25.259Z,8.8
2023-05-10T07:39:39.494Z,10.8
2023-05-10T07:40:53.716Z,13.2
2023-05-10T07:42:08.016Z,11.4
2023-05-10T07:43:22.251Z,11
2023-05-10T07:44:36.495Z,12.2
2023-05-10T07:45:50.703Z,6.9
2023-05-10T07:47:04.937Z,9.5
2023-05-10T07:48:19.233Z,8
2023-05-10T07:49:33.472Z,10.7
2023-05-10T07:50:47.704Z,8.5
2023-05-10T07:52:01.989Z,9.9
2023-05-10T07:53:15.327Z,11.1
2023-05-10T07:54:29.610Z,13.4
2023-05-10T07:55:42.910Z,12.2
2023-05-10T07:56:57.122Z,13.6
2023-05-10T07:58:11.433Z,12.8
2023-05-10T07:59:25.671Z,12.6
2023-05-10T08:01:54.120Z,10.6
2023-05-10T08:03:08.357Z,13.8
2023-05-10T08:04:22.650Z,15.8
2023-05-10T08:05:36.900Z,14.2
2023-05-10T08:06:51.121Z,12.3
2023-05-10T08:08:05.339Z,16.3
2023-05-10T08:09:19.568Z,13.5
2023-05-10T08:10:33.860Z,16.7
2023-05-10T08:11:48.121Z,14.2
2023-05-10T08:13:02.335Z,15.6
2023-05-10T08:14:16.571Z,14
2023-05-10T08:15:30.791Z,18.5
2023-05-10T08:16:45.094Z,17.8
2023-05-10T08:17:59.326Z,20.2
2023-05-10T08:19:13.561Z,17.3
2023-05-10T08:20:27.777Z,15.8
2023-05-10T08:21:42.016Z,16.8
2023-05-10T08:22:56.313Z,14.9
2023-05-10T08:24:10.550Z,15.6
2023-05-10T08:25:24.774Z,14.6
2023-05-10T08:26:39.068Z,17.7
2023-05-10T08:27:52.372Z,14.1
2023-05-10T08:29:06.595Z,15.4
2023-05-10T08:30:20.824Z,15.9
2023-05-10T08:31:35.056Z,17
2023-05-10T08:32:49.276Z,11.6
2023-05-10T08:34:03.572Z,13.4
2023-05-10T08:35:17.813Z,14
2023-05-10T08:36:32.057Z,16.3
2023-05-10T08:37:46.269Z,13.8
2023-05-10T08:39:00.508Z,14.6
2023-05-10T08:40:14.806Z,12.5
2023-05-10T08:41:29.000Z,14.9
2023-05-10T08:42:43.267Z,12.7
2023-05-10T08:43:57.495Z,11.4
2023-05-10T08:45:11.728Z,14.8
2023-05-10T08:46:26.017Z,17.2
2023-05-10T08:47:40.264Z,14.2
2023-05-10T08:48:54.493Z,12.4
2023-05-10T08:50:08.719Z,15.1
2023-05-10T08:51:22.949Z,14.7
2023-05-10T08:52:37.244Z,10
2023-05-10T08:53:51.485Z,12.9
2023-05-10T08:55:05.724Z,9.2
2023-05-10T08:56:19.946Z,10.8
2023-05-10T08:57:34.160Z,10.7
2023-05-10T08:58:48.525Z,13.9
2023-05-10T09:00:02.819Z,15.1
2023-05-10T09:01:16.107Z,15.6
2023-05-10T09:02:30.339Z,9.6
2023-05-10T09:03:44.643Z,13.9
2023-05-10T09:04:58.872Z,13
2023-05-10T09:06:13.103Z,12
2023-05-10T09:07:27.333Z,12.9
2023-05-10T09:08:41.565Z,16
2023-05-10T09:09:55.860Z,11.5
2023-05-10T09:11:10.103Z,12.3
2023-05-10T09:12:24.328Z,14.4
2023-05-10T09:13:38.550Z,10.9
2023-05-10T09:14:52.772Z,11
2023-05-10T09:16:07.075Z,13.7
2023-05-10T09:17:21.312Z,9.3
2023-05-10T09:18:35.556Z,7.8
2023-05-10T09:19:49.765Z,13.1
2023-05-10T09:21:03.999Z,9.2
2023-05-10T09:22:18.303Z,14
2023-05-10T09:23:32.541Z,14.3
2023-05-10T09:24:46.768Z,8.6
2023-05-10T09:26:00.992Z,11.3
2023-05-10T09:27:15.227Z,9.9
2023-05-10T09:28:29.528Z,11.8
2023-05-10T09:29:43.760Z,12.1
2023-05-10T09:30:57.983Z,11
2023-05-10T09:32:12.263Z,11.9
2023-05-10T09:33:25.632Z,8.8
2023-05-10T09:34:39.902Z,11
2023-05-10T09:35:53.195Z,12.6
2023-05-10T09:37:07.435Z,12.1
2023-05-10T09:38:21.739Z,12.3
2023-05-10T09:39:35.968Z,12.8
2023-05-10T09:40:50.199Z,11.3
2023-05-10T09:42:04.424Z,13
2023-05-10T09:43:18.648Z,9.7
2023-05-10T09:44:32.944Z,7.2
2023-05-10T09:45:47.191Z,9.3
2023-05-10T09:47:01.417Z,20.1
2023-05-10T09:48:15.647Z,10.4
2023-05-10T09:49:29.874Z,13.1
2023-05-10T09:51:58.410Z,9.1
2023-05-10T09:53:12.637Z,9.7
2023-05-10T09:54:26.875Z,11.2
2023-05-10T09:55:41.099Z,10.2
2023-05-10T09:56:55.392Z,7.3
2023-05-10T09:58:09.635Z,7.8
2023-05-10T09:59:23.857Z,9.5
2023-05-10T10:00:38.094Z,11.2
2023-05-10T10:01:52.311Z,12.2
2023-05-10T10:03:06.607Z,12.9
2023-05-10T10:04:20.861Z,13.4
2023-05-10T10:05:35.081Z,10.5
2023-05-10T10:06:49.362Z,14.5
2023-05-10T10:08:02.699Z,11.4
2023-05-10T10:09:16.993Z,15.6
2023-05-10T10:10:31.276Z,10.1
2023-05-10T10:11:44.556Z,11.3
2023-05-10T10:12:58.856Z,11.3
2023-05-10T10:14:13.112Z,12.3
2023-05-10T10:15:27.336Z,12.9
2023-05-10T10:16:41.568Z,11.1
2023-05-10T10:17:55.782Z,9.5
2023-05-10T10:19:10.097Z,12.5
2023-05-10T10:20:24.324Z,11.4
2023-05-10T10:21:38.558Z,10.1
2023-05-10T10:22:52.786Z,9.9
2023-05-10T10:24:07.018Z,9.4
2023-05-10T10:25:21.312Z,9.6
2023-05-10T10:26:35.555Z,13.9
2023-05-10T10:27:49.782Z,9.2
2023-05-10T10:29:04.004Z,10.9
2023-05-10T10:30:18.240Z,10.6
2023-05-10T10:31:32.539Z,8.2
2023-05-10T10:32:46.785Z,11.3
2023-05-10T10:34:01.008Z,10
2023-05-10T10:35:15.238Z,6.6
2023-05-10T10:36:29.456Z,8
2023-05-10T10:37:43.759Z,10.4
2023-05-10T10:38:58.001Z,8.5
2023-05-10T10:40:12.218Z,11.8
2023-05-10T10:41:26.602Z,6.6
2023-05-10T10:42:40.812Z,5.5
2023-05-10T10:43:55.118Z,12.8
2023-05-10T10:45:09.372Z,7.6
2023-05-10T10:46:23.583Z,6.7
2023-05-10T10:47:37.821Z,9.2
2023-05-10T10:48:52.156Z,10.7
2023-05-10T10:50:06.457Z,7.4
2023-05-10T10:51:20.701Z,7.4
2023-05-10T10:52:34.935Z,10
2023-05-10T10:53:49.154Z,12.4
2023-05-10T10:55:03.387Z,7.8
2023-05-10T10:56:17.683Z,11.8
2023-05-10T10:57:31.930Z,9.2
2023-05-10T10:58:46.161Z,10.3
2023-05-10T11:00:00.383Z,15.1
2023-05-10T11:01:14.606Z,13.8
2023-05-10T11:02:28.916Z,8.2
2023-05-10T11:03:43.157Z,11.9
2023-05-10T11:04:57.384Z,13.6
2023-05-10T11:06:11.607Z,9.6
2023-05-10T11:07:25.837Z,12.8
2023-05-10T11:08:40.130Z,10.8
2023-05-10T11:11:08.593Z,9.5
2023-05-10T11:12:22.831Z,12.2
2023-05-10T11:13:37.062Z,13.2
2023-05-10T11:14:51.362Z,11.7
2023-05-10T11:16:05.588Z,10
2023-05-10T11:17:19.826Z,8.4
2023-05-10T11:18:34.054Z,10.6
2023-05-10T11:19:48.278Z,9.6
2023-05-10T11:21:02.573Z,14.9
2023-05-10T11:22:16.806Z,7.9
2023-05-10T11:23:31.032Z,7.4
2023-05-10T11:24:45.268Z,13
2023-05-10T11:25:59.504Z,6.6
2023-05-10T11:27:13.800Z,11.1
2023-05-10T11:28:28.043Z,9.6
2023-05-10T11:29:42.256Z,13.4
2023-05-10T11:30:56.487Z,8.4
2023-05-10T11:32:10.708Z,9
2023-05-10T11:33:25.017Z,13.8
2023-05-10T11:34:39.311Z,10.5
2023-05-10T11:35:52.644Z,14.1
2023-05-10T11:37:06.927Z,11.8
2023-05-10T11:38:21.229Z,8.6
2023-05-10T11:39:35.514Z,11.2
2023-05-10T11:40:48.803Z,14.1
2023-05-10T11:42:03.025Z,12.3
2023-05-10T11:43:17.339Z,8.9
2023-05-10T11:44:31.573Z,6.1
2023-05-10T11:45:45.813Z,9.3
2023-05-10T11:47:00.032Z,11.3
2023-05-10T11:48:14.262Z,10.1
2023-05-10T11:49:28.553Z,13.2
2023-05-10T11:50:42.803Z,14.6
2023-05-10T11:51:57.034Z,7.6
2023-05-10T11:53:11.257Z,9.4
2023-05-10T11:54:25.475Z,6.1
2023-05-10T11:55:39.773Z,8.4
2023-05-10T11:56:54.021Z,9.6
2023-05-10T11:58:08.254Z,6.2
2023-05-10T11:59:22.471Z,7.8
2023-05-10T12:00:36.701Z,13.6
2023-05-10T12:01:51.001Z,13.9
2023-05-10T12:03:05.236Z,7.6
2023-05-10T12:04:19.473Z,13.2
2023-05-10T12:05:33.693Z,8
2023-05-10T12:06:47.919Z,7.9
2023-05-10T12:08:02.225Z,9
2023-05-10T12:09:16.465Z,8.4
2023-05-10T12:10:30.680Z,9.8
2023-05-10T12:11:45.058Z,10.4
2023-05-10T12:12:59.277Z,7.5
2023-05-10T12:14:13.588Z,15.4
2023-05-10T12:15:27.834Z,10
2023-05-10T12:16:42.050Z,13.6
2023-05-10T12:17:56.289Z,7.6
2023-05-10T12:19:10.504Z,9.5
2023-05-10T12:20:24.798Z,9.6
2023-05-10T12:21:39.044Z,12.1
2023-05-10T12:22:53.271Z,11
2023-05-10T12:24:07.508Z,8.9
2023-05-10T12:25:21.729Z,12.5
2023-05-10T12:26:36.027Z,6.8
2023-05-10T12:27:50.268Z,10.8
2023-05-10T12:29:04.499Z,12.2
2023-05-10T12:30:18.849Z,11.1
2023-05-10T12:31:33.064Z,9.1
2023-05-10T12:32:47.371Z,8.7
2023-05-10T12:34:01.614Z,7.2
2023-05-10T12:35:15.845Z,10.6
2023-05-10T12:36:30.055Z,12
2023-05-10T12:37:44.285Z,8.3
2023-05-10T12:40:12.826Z,9.6
2023-05-10T12:41:27.059Z,8.4
2023-05-10T12:42:41.425Z,10.2
2023-05-10T12:43:55.658Z,8.3
2023-05-10T12:45:09.954Z,10.2
2023-05-10T12:46:24.212Z,9
2023-05-10T12:47:38.551Z,8.3
2023-05-10T12:48:52.779Z,8
2023-05-10T12:50:07.007Z,7.8
2023-05-10T12:51:21.302Z,13.5
2023-05-10T12:52:35.535Z,9.5
2023-05-10T12:53:49.779Z,10.4
2023-05-10T12:55:03.990Z,11
2023-05-10T12:56:18.215Z,8.9
2023-05-10T12:57:32.528Z,8.5
2023-05-10T12:58:46.758Z,10.8
2023-05-10T13:00:01.003Z,7.8
2023-05-10T13:01:15.217Z,8.2
2023-05-10T13:02:29.438Z,8.7
2023-05-10T13:03:43.737Z,9.2
2023-05-10T13:04:57.986Z,9
2023-05-10T13:06:12.206Z,10.5
2023-05-10T13:07:26.433Z,11.6
2023-05-10T13:08:40.666Z,14.3
2023-05-10T13:09:54.975Z,10.1
2023-05-10T13:11:09.202Z,12.9
2023-05-10T13:12:23.437Z,8.9
2023-05-10T13:13:37.652Z,11.2
2023-05-10T13:14:51.891Z,9.3
2023-05-10T13:16:06.178Z,10.2
2023-05-10T13:17:20.436Z,12.8
2023-05-10T13:18:34.658Z,12.6
2023-05-10T13:19:48.891Z,10.2
2023-05-10T13:21:03.104Z,11.5
2023-05-10T13:22:17.406Z,11.5
2023-05-10T13:23:31.656Z,14.2
2023-05-10T13:24:45.877Z,11.9
2023-05-10T13:26:00.108Z,10.4
2023-05-10T13:27:14.325Z,8.5
2023-05-10T13:28:28.624Z,11
2023-05-10T13:29:42.876Z,10.4
2023-05-10T13:30:57.097Z,9
2023-05-10T13:32:11.331Z,10.3
2023-05-10T13:33:25.615Z,10.4
2023-05-10T13:34:39.910Z,12.1
2023-05-10T13:35:54.181Z,10.4
2023-05-10T13:37:07.487Z,8.4
2023-05-10T13:38:21.708Z,11.3
2023-05-10T13:39:36.016Z,12.7
2023-05-10T13:40:50.244Z,10.4
2023-05-10T13:42:04.473Z,13.4
2023-05-10T13:43:18.699Z,12.9
2023-05-10T13:44:32.927Z,10.3
2023-05-10T13:45:47.238Z,10.4
2023-05-10T13:47:01.479Z,18.7
2023-05-10T13:48:15.695Z,9.6
2023-05-10T13:49:29.925Z,12.8
2023-05-10T13:50:44.153Z,8.7
2023-05-10T13:51:58.461Z,7.8
2023-05-10T13:53:12.693Z,7.6
2023-05-10T13:54:26.919Z,15.9
2023-05-10T13:55:41.151Z,10.1
2023-05-10T13:56:55.382Z,11.5
2023-05-10T13:58:09.668Z,10.4
2023-05-10T13:59:23.922Z,9.8
2023-05-10T14:00:38.149Z,11.6
2023-05-10T14:01:52.000Z,14.1
2023-05-10T14:03:06.590Z,12.9
2023-05-10T14:04:20.899Z,11.1
2023-05-10T14:05:35.130Z,11.5
2023-05-10T14:06:49.372Z,5.6
2023-05-10T14:08:03.647Z,10.2
2023-05-10T14:09:17.936Z,8
2023-05-10T14:10:32.229Z,9.5
2023-05-10T14:11:46.509Z,10
2023-05-10T14:12:59.808Z,11.5
2023-05-10T14:14:14.040Z,9.4
2023-05-10T14:15:28.344Z,6.6
2023-05-10T14:16:42.577Z,6.9
2023-05-10T14:17:56.800Z,6.7
2023-05-10T14:19:11.037Z,7.3
2023-05-10T14:20:25.270Z,9.1
2023-05-10T14:21:39.555Z,6
2023-05-10T14:22:53.793Z,9.9
2023-05-10T14:24:08.031Z,5.6
2023-05-10T14:25:22.262Z,6
2023-05-10T14:26:36.486Z,6.9
2023-05-10T14:27:50.774Z,9.6
2023-05-10T14:29:05.021Z,7.3
2023-05-10T14:30:19.257Z,2.9
2023-05-10T14:31:33.592Z,7.1
2023-05-10T14:32:47.816Z,9.7
2023-05-10T14:34:02.132Z,6.6
2023-05-10T14:35:16.368Z,8.7
2023-05-10T14:36:30.590Z,8
2023-05-10T14:37:44.822Z,10
2023-05-10T14:38:59.187Z,9
2023-05-10T14:40:13.499Z,7.8
2023-05-10T14:41:27.730Z,9.4
2023-05-10T14:42:41.966Z,13.7
2023-05-10T14:43:56.301Z,6.8
2023-05-10T14:45:10.535Z,8.3
2023-05-10T14:46:24.834Z,9.5
2023-05-10T14:47:39.073Z,8.2
2023-05-10T14:48:53.300Z,7.4
2023-05-10T14:50:07.519Z,10.5
2023-05-10T14:51:21.758Z,10.1
2023-05-10T14:52:36.045Z,8.1
2023-05-10T14:55:04.527Z,9.2
2023-05-10T14:56:18.753Z,7.5
2023-05-10T14:57:32.969Z,5.4
2023-05-10T14:58:47.268Z,6.5
2023-05-10T15:00:01.507Z,8
2023-05-10T15:01:15.739Z,5.5
2023-05-10T15:02:29.961Z,3.2
2023-05-10T15:03:44.205Z,5.6
2023-05-10T15:04:58.496Z,8
2023-05-10T15:06:12.727Z,8.6
2023-05-10T15:07:26.969Z,7.1
2023-05-10T15:08:41.182Z,8.6
2023-05-10T15:11:09.716Z,13.5
2023-05-10T15:12:23.967Z,10.6
2023-05-10T15:13:38.196Z,9.8
2023-05-10T15:14:52.417Z,8.3
2023-05-10T15:17:20.928Z,10.7
2023-05-10T15:18:35.184Z,8.4
2023-05-10T15:19:49.403Z,12.8
2023-05-10T15:21:03.638Z,9.4
2023-05-10T15:22:17.847Z,9.1
2023-05-10T15:23:32.156Z,7.1
2023-05-10T15:24:46.394Z,9.3
2023-05-10T15:26:00.631Z,8.5
2023-05-10T15:27:14.842Z,11.8
2023-05-10T15:28:29.085Z,8.2
2023-05-10T15:29:43.438Z,6
2023-05-10T15:30:57.720Z,12
2023-05-10T15:32:11.040Z,9.3
2023-05-10T15:33:25.340Z,8.1
2023-05-10T15:34:39.631Z,9.3
2023-05-10T15:35:53.914Z,8.2
2023-05-10T15:37:08.195Z,6.9
2023-05-10T15:38:22.480Z,8
2023-05-10T15:39:36.770Z,11.1
2023-05-10T15:40:51.069Z,6.7
2023-05-10T15:42:05.341Z,8.7
2023-05-10T15:43:18.647Z,8.5
2023-05-10T15:44:32.881Z,5.3
2023-05-10T15:45:47.177Z,13.1
2023-05-10T15:47:01.417Z,6.2
2023-05-10T15:48:15.647Z,9.3
2023-05-10T15:50:44.090Z,9.8
2023-05-10T15:51:58.401Z,5.6
2023-05-10T15:53:12.628Z,5.5
2023-05-10T15:54:26.857Z,7.2
2023-05-10T15:55:41.079Z,7.6
2023-05-10T15:56:55.304Z,7.7
2023-05-10T15:58:09.616Z,8.3
2023-05-10T15:59:23.857Z,9.7
2023-05-10T16:00:38.078Z,12.4
2023-05-10T16:01:52.306Z,8
2023-05-10T16:03:06.526Z,8
2023-05-10T16:04:20.843Z,9.9
2023-05-10T16:05:35.080Z,8.3
2023-05-10T16:06:49.297Z,6.3
2023-05-10T16:08:03.537Z,6.5
2023-05-10T16:09:17.752Z,9.5
2023-05-10T16:10:32.047Z,9.1
2023-05-10T16:11:46.302Z,7.7
2023-05-10T16:13:00.522Z,6.9
2023-05-10T16:14:14.815Z,7.6
2023-05-10T16:15:28.131Z,7.2
2023-05-10T16:16:42.433Z,11.2
2023-05-10T16:17:56.705Z,8.3
2023-05-10T16:19:10.059Z,11.7
2023-05-10T16:20:24.359Z,6.9
2023-05-10T16:21:38.638Z,9.3
2023-05-10T16:22:51.975Z,9.1
2023-05-10T16:24:05.325Z,9.6
2023-05-10T16:25:19.608Z,9.7
2023-05-10T16:26:32.935Z,7.5
2023-05-10T16:27:46.286Z,5.9
2023-05-10T16:29:00.583Z,7.1
2023-05-10T16:30:14.853Z,11.1
2023-05-10T16:31:28.204Z,8.8
2023-05-10T16:32:42.515Z,6.9
2023-05-10T16:33:56.803Z,7.8
2023-05-10T16:35:10.093Z,8
2023-05-10T16:36:24.319Z,11.2
2023-05-10T16:37:38.610Z,9.5
2023-05-10T16:38:52.848Z,9.1
2023-05-10T16:40:07.085Z,9.7
2023-05-10T16:41:21.441Z,7.1
2023-05-10T16:42:35.660Z,7.7
2023-05-10T16:43:49.952Z,11.6
2023-05-10T16:45:04.196Z,9.5
2023-05-10T16:46:18.434Z,10
2023-05-10T16:47:32.650Z,11.9
2023-05-10T16:48:46.879Z,10.2
2023-05-10T16:50:01.178Z,8.6
2023-05-10T16:51:15.427Z,7.9
2023-05-10T16:52:29.653Z,8.9
2023-05-10T16:53:43.872Z,10.5
2023-05-10T16:54:58.102Z,8.8
2023-05-10T16:56:12.392Z,18.4
2023-05-10T16:57:26.650Z,10.1
2023-05-10T16:58:40.857Z,16.6
2023-05-10T16:59:55.090Z,10.4
2023-05-10T17:01:09.456Z,12.4
2023-05-10T17:02:23.000Z,8.1
2023-05-10T17:03:37.982Z,9
2023-05-10T17:04:52.207Z,7.4
2023-05-10T17:06:06.440Z,9
2023-05-10T17:07:20.663Z,9.5
2023-05-10T17:08:34.956Z,8.4
2023-05-10T17:09:49.196Z,7.3
2023-05-10T17:11:03.439Z,7.3